Time;durP1;ratioP1;P1;durP2;ratioP2;P2;SDS_P1;SDS_P2;PMS_P1;PMS_P2;Temp;Humidity;BMP_temperature;BMP_pressure;BME280_temperature;BME280_humidity;BME280_pressure;Samples;Min_cycle;Max_cycle;Signal;HPM_P1;HPM_P2
2022/05/03 00:00:07;;;;;;;20.30;12.05;;;10.50;99.90;;;;;;5053888;28;20476;-84
2022/05/03 00:03:02;;;;;;;18.95;11.85;;;10.50;99.90;;;;;;5053882;28;20116;-84
2022/05/03 00:06:25;;;;;;;19.02;12.00;;;10.60;99.90;;;;;;5054142;28;20120;-84
2022/05/03 00:09:12;;;;;;;15.43;11.15;;;10.70;99.90;;;;;;5021129;28;20416;-83
2022/05/03 00:11:55;;;;;;;21.00;12.00;;;10.80;99.90;;;;;;5053744;28;20032;-84
2022/05/03 00:14:28;;;;;;;19.63;11.70;;;10.80;99.90;;;;;;5035990;28;20078;-84
2022/05/03 00:16:56;;;;;;;21.50;12.25;;;10.80;99.90;;;;;;5053650;28;20075;-84
2022/05/03 00:19:28;;;;;;;24.70;12.25;;;10.90;99.90;;;;;;5053655;28;20508;-84
2022/05/03 00:21:55;;;;;;;17.38;10.23;;;10.80;99.90;;;;;;5053569;28;20037;-83
2022/05/03 00:24:22;;;;;;;21.10;10.98;;;10.80;99.90;;;;;;5053737;28;20029;-84
2022/05/03 00:26:48;;;;;;;20.30;11.40;;;10.70;99.90;;;;;;5053480;28;20032;-84
2022/05/03 00:29:21;;;;;;;23.55;11.65;;;10.60;99.90;;;;;;5052293;28;20025;-84
2022/05/03 00:31:46;;;;;;;20.92;12.43;;;10.60;99.90;;;;;;5053603;28;20021;-83
2022/05/03 00:34:13;;;;;;;16.63;10.90;;;10.50;99.90;;;;;;5053205;28;20024;-83
2022/05/03 00:36:39;;;;;;;19.63;11.90;;;10.50;99.90;;;;;;5053381;28;20104;-83
2022/05/03 00:39:06;;;;;;;14.85;10.70;;;10.50;99.90;;;;;;5035226;28;20463;-84
2022/05/03 00:41:45;;;;;;;17.00;9.80;;;10.40;99.90;;;;;;5053313;28;20017;-84
2022/05/03 00:45:00;;;;;;;13.52;9.98;;;10.40;99.90;;;;;;5053018;28;20037;-83
2022/05/03 00:47:51;;;;;;;25.02;10.90;;;10.30;99.90;;;;;;5053157;28;20025;-84
2022/05/03 00:50:54;;;;;;;21.08;11.07;;;10.20;99.90;;;;;;5053218;28;20017;-84
2022/05/03 00:53:58;;;;;;;26.92;11.57;;;10.20;99.90;;;;;;5053040;28;20497;-84
2022/05/03 00:57:09;;;;;;;15.40;10.23;;;10.10;99.90;;;;;;5053062;28;20032;-84
2022/05/03 00:59:50;;;;;;;18.15;10.75;;;10.00;99.90;;;;;;5053100;28;20029;-84
2022/05/03 01:02:21;;;;;;;16.95;11.50;;;10.00;99.90;;;;;;5051993;28;20416;-84
2022/05/03 01:05:09;;;;;;;17.30;10.93;;;9.90;99.90;;;;;;5052816;28;20029;-84
2022/05/03 01:07:55;;;;;;;23.23;10.90;;;9.80;99.90;;;;;;5052911;28;20108;-84
2022/05/03 01:10:42;;;;;;;15.30;10.77;;;9.80;99.90;;;;;;5052660;28;20029;-84
2022/05/03 01:13:33;;;;;;;14.85;11.07;;;9.70;99.90;;;;;;5052630;28;20377;-84
2022/05/03 01:16:50;;;;;;;15.13;10.63;;;9.70;99.90;;;;;;5052771;28;20100;-84
2022/05/03 01:19:50;;;;;;;15.48;10.60;;;9.60;99.90;;;;;;5029913;28;20466;-83
2022/05/03 01:22:52;;;;;;;17.08;11.35;;;9.60;99.90;;;;;;5052741;28;20104;-83
2022/05/03 01:25:54;;;;;;;19.73;11.40;;;9.50;99.90;;;;;;5051088;28;20029;-83
2022/05/03 01:28:19;;;;;;;17.80;10.50;;;9.40;99.90;;;;;;5034841;28;20114;-83
2022/05/03 01:30:50;;;;;;;25.33;12.13;;;9.40;99.90;;;;;;5051245;28;20504;-83
2022/05/03 01:33:22;;;;;;;20.33;11.00;;;9.30;99.90;;;;;;5052630;28;20017;-83
2022/05/03 01:35:56;;;;;;;15.15;10.75;;;9.20;99.90;;;;;;5052465;28;20075;-84
2022/05/03 01:38:55;;;;;;;19.65;10.27;;;9.20;99.90;;;;;;5034646;28;20115;-84
2022/05/03 01:41:41;;;;;;;18.90;12.25;;;9.20;99.90;;;;;;5021969;28;20439;-84
2022/05/03 01:44:38;;;;;;;16.67;10.15;;;9.10;99.90;;;;;;5052526;28;20116;-84
2022/05/03 01:47:30;;;;;;;15.25;10.43;;;9.00;99.90;;;;;;5052336;28;20037;-83
2022/05/03 01:50:19;;;;;;;16.13;11.07;;;9.00;99.90;;;;;;5052374;28;20021;-84
2022/05/03 01:53:18;;;;;;;15.27;10.57;;;9.00;99.90;;;;;;5052444;28;20029;-83
2022/05/03 01:56:00;;;;;;;17.88;11.20;;;8.90;99.90;;;;;;5052032;28;20029;-83
2022/05/03 01:58:36;;;;;;;20.55;10.63;;;8.90;99.90;;;;;;5051159;28;20033;-83
2022/05/03 02:01:38;;;;;;;16.30;10.75;;;8.90;99.90;;;;;;5051116;28;20063;-84
2022/05/03 02:04:13;;;;;;;16.00;9.93;;;8.80;99.90;;;;;;5034199;28;20384;-84
2022/05/03 02:07:07;;;;;;;17.45;11.75;;;8.80;99.90;;;;;;5052208;28;20029;-84
2022/05/03 02:10:17;;;;;;;14.55;10.73;;;8.70;99.90;;;;;;5051811;28;20013;-84
2022/05/03 02:12:53;;;;;;;14.25;10.85;;;8.70;99.90;;;;;;5051070;28;20025;-84
2022/05/03 02:15:43;;;;;;;21.75;10.55;;;8.70;99.90;;;;;;5052262;28;20405;-83
2022/05/03 02:18:49;;;;;;;19.50;11.05;;;8.70;99.90;;;;;;5052102;28;20132;-84
2022/05/03 02:21:39;;;;;;;18.55;10.85;;;8.70;99.90;;;;;;5034003;28;20041;-84
2022/05/03 02:24:36;;;;;;;19.70;11.00;;;8.60;99.90;;;;;;5051627;28;20025;-84
2022/05/03 02:27:09;;;;;;;15.18;10.20;;;8.60;99.90;;;;;;5050651;28;20029;-84
2022/05/03 02:29:47;;;;;;;14.05;10.13;;;8.60;99.90;;;;;;5052098;28;20024;-84
2022/05/03 02:32:36;;;;;;;21.65;10.98;;;8.60;99.90;;;;;;5052022;28;20469;-83
2022/05/03 02:35:04;;;;;;;18.98;10.85;;;8.60;99.90;;;;;;5055652;28;20489;-83
2022/05/03 02:38:01;;;;;;;16.25;11.32;;;8.60;99.90;;;;;;5037817;28;20417;-83
2022/05/03 02:40:29;;;;;;;;;;;8.70;99.90;;;;;;5037900;28;20052;-84
2022/05/03 02:43:29;;;;;;;17.30;11.18;;;8.70;99.90;;;;;;5055111;28;19905;-83
2022/05/03 02:49:39;;;;;;;19.20;11.25;;;8.70;99.90;;;;;;5055820;28;20087;-83
2022/05/03 02:52:32;;;;;;;16.52;11.07;;;8.80;99.90;;;;;;4993665;28;20026;-83
2022/05/03 02:55:03;;;;;;;17.15;10.35;;;8.80;99.90;;;;;;4993711;28;20164;-83
2022/05/03 02:58:10;;;;;;;18.75;10.65;;;8.80;99.90;;;;;;5050934;28;20401;-84
2022/05/03 03:04:02;;;;;;;16.02;10.63;;;8.80;99.90;;;;;;5055667;28;20945;-84
2022/05/03 03:06:44;;;;;;;21.63;11.45;;;8.80;99.90;;;;;;5055246;28;20024;-84
2022/05/03 03:09:49;;;;;;;18.67;10.68;;;8.90;99.90;;;;;;5054799;28;20025;-83
2022/05/03 03:12:18;;;;;;;18.95;11.23;;;8.90;99.90;;;;;;5055147;28;20032;-83
2022/05/03 03:15:02;;;;;;;18.45;10.45;;;8.90;99.90;;;;;;5055054;28;20036;-84
2022/05/03 03:17:29;;;;;;;14.10;9.82;;;9.00;99.90;;;;;;5054991;28;20412;-84
2022/05/03 03:20:10;;;;;;;19.27;10.60;;;9.10;99.90;;;;;;5036589;28;20025;-84
2022/05/03 03:22:44;;;;;;;14.32;9.90;;;9.20;99.90;;;;;;5034736;28;20033;-83
2022/05/03 03:25:15;;;;;;;14.38;10.38;;;9.20;99.90;;;;;;5033073;28;20489;-83
2022/05/03 03:27:43;;;;;;;15.63;9.13;;;9.20;99.90;;;;;;5033404;28;20072;-84
2022/05/03 03:30:11;;;;;;;17.88;9.35;;;9.20;99.90;;;;;;5034689;28;20105;-84
2022/05/03 03:32:39;;;;;;;16.17;9.38;;;9.20;99.90;;;;;;5034755;28;20025;-84
2022/05/03 03:35:11;;;;;;;11.55;9.07;;;9.20;99.90;;;;;;5034787;28;20072;-84
2022/05/03 03:37:41;;;;;;;16.38;9.10;;;9.20;99.90;;;;;;5034767;28;20026;-84
2022/05/03 03:40:18;;;;;;;15.13;9.95;;;9.20;99.90;;;;;;5034342;28;20013;-84
2022/05/03 03:42:44;;;;;;;15.70;9.23;;;9.20;99.90;;;;;;5034450;28;20034;-84
2022/05/03 03:45:15;;;;;;;17.67;9.75;;;9.10;99.90;;;;;;5033347;28;20543;-83
2022/05/03 03:47:43;;;;;;;15.20;9.48;;;9.20;99.90;;;;;;5034467;28;20021;-84
2022/05/03 03:50:09;;;;;;;14.10;8.80;;;9.10;99.90;;;;;;5034342;28;20022;-83
2022/05/03 03:52:38;;;;;;;15.10;9.82;;;9.10;99.90;;;;;;5034362;28;20504;-84
2022/05/03 03:55:12;;;;;;;14.10;9.25;;;9.10;99.90;;;;;;5034064;28;20032;-84
2022/05/03 03:57:39;;;;;;;13.13;8.63;;;9.20;99.90;;;;;;5034311;28;20028;-84
2022/05/03 04:00:11;;;;;;;12.85;8.68;;;9.10;99.90;;;;;;5034234;28;20025;-84
2022/05/03 04:02:38;;;;;;;12.05;8.15;;;9.00;99.90;;;;;;5034038;28;20021;-84
2022/05/03 04:05:17;;;;;;;13.77;9.30;;;8.90;99.90;;;;;;5034169;28;20108;-84
2022/05/03 04:07:43;;;;;;;16.90;9.00;;;8.80;99.90;;;;;;5034435;28;20029;-83
2022/05/03 04:10:18;;;;;;;12.60;8.07;;;8.90;99.90;;;;;;5032678;28;20405;-84
2022/05/03 04:12:43;;;;;;;13.45;9.32;;;8.90;99.90;;;;;;5033955;28;20432;-84
2022/05/03 04:15:10;;;;;;;13.02;9.38;;;8.90;99.90;;;;;;5033798;28;20105;-84
2022/05/03 04:17:36;;;;;;;15.77;9.40;;;8.90;99.90;;;;;;5033949;28;20022;-84
2022/05/03 04:20:03;;;;;;;11.90;8.48;;;8.90;99.90;;;;;;5034439;28;20040;-84
2022/05/03 04:22:33;;;;;;;18.58;9.40;;;8.90;99.90;;;;;;5033418;28;20107;-83
2022/05/03 04:25:04;;;;;;;11.82;8.75;;;8.90;99.90;;;;;;5032215;28;20055;-84
2022/05/03 04:27:31;;;;;;;11.77;8.23;;;8.90;99.90;;;;;;5033292;28;20029;-84
2022/05/03 04:30:20;;;;;;;12.55;8.68;;;9.00;99.90;;;;;;5032377;28;20028;-83
2022/05/03 04:32:46;;;;;;;16.70;8.18;;;9.00;99.90;;;;;;5033436;28;20022;-83
2022/05/03 04:35:18;;;;;;;23.88;8.55;;;9.00;99.90;;;;;;5033297;28;20075;-83
2022/05/03 04:37:44;;;;;;;10.38;7.18;;;9.10;99.90;;;;;;5032370;28;20026;-84
2022/05/03 04:40:11;;;;;;;14.38;7.78;;;9.10;99.90;;;;;;5032956;28;20092;-83
2022/05/03 04:42:36;;;;;;;12.77;7.55;;;9.20;99.90;;;;;;5033314;28;20021;-84
2022/05/03 04:45:04;;;;;;;12.30;7.30;;;9.20;99.90;;;;;;5033695;28;20025;-84
2022/05/03 04:47:30;;;;;;;12.88;7.00;;;9.20;99.90;;;;;;5033212;28;20076;-84
2022/05/03 04:50:07;;;;;;;13.60;5.95;;;9.20;99.90;;;;;;5033097;28;20454;-83
2022/05/03 04:52:32;;;;;;;8.07;5.85;;;9.30;99.90;;;;;;5031818;28;20116;-84
2022/05/03 04:55:12;;;;;;;20.00;6.95;;;9.30;99.90;;;;;;5032884;28;20100;-83
2022/05/03 04:57:38;;;;;;;12.27;6.50;;;9.30;99.90;;;;;;5032993;28;20374;-83
2022/05/03 05:00:10;;;;;;;14.10;6.10;;;9.30;99.90;;;;;;5031897;28;20017;-84
2022/05/03 05:02:37;;;;;;;9.52;5.57;;;9.30;99.90;;;;;;5033042;28;20057;-84
2022/05/03 05:05:07;;;;;;;8.13;5.50;;;9.30;99.90;;;;;;5032916;28;20033;-84
2022/05/03 05:07:33;;;;;;;9.73;5.68;;;9.30;99.90;;;;;;5032804;28;20116;-83
2022/05/03 05:10:23;;;;;;;12.57;5.78;;;9.30;99.90;;;;;;5032719;28;20434;-83
2022/05/03 05:12:49;;;;;;;9.88;5.32;;;9.30;99.90;;;;;;5032861;28;20104;-84
2022/05/03 05:15:16;;;;;;;15.65;5.85;;;9.30;99.90;;;;;;5032860;28;20092;-84
2022/05/03 05:17:41;;;;;;;5.20;4.32;;;9.30;99.90;;;;;;5032907;28;20100;-84
2022/05/03 05:20:07;;;;;;;8.77;5.07;;;9.40;99.90;;;;;;5031824;28;20045;-84
2022/05/03 05:22:33;;;;;;;7.00;5.53;;;9.50;99.90;;;;;;5052274;28;20045;-84
2022/05/03 05:25:09;;;;;;;6.90;4.53;;;9.50;99.90;;;;;;5052287;28;20052;-83
2022/05/03 05:27:34;;;;;;;8.13;5.05;;;9.60;99.90;;;;;;5052584;28;20033;-84
2022/05/03 05:30:00;;;;;;;9.48;5.15;;;9.60;99.90;;;;;;5051311;28;20067;-84
2022/05/03 05:32:26;;;;;;;12.32;5.57;;;9.70;99.90;;;;;;5052451;28;20465;-84
2022/05/03 05:34:56;;;;;;;10.95;5.32;;;9.70;99.90;;;;;;5052460;28;20469;-84
2022/05/03 05:37:22;;;;;;;9.00;5.22;;;9.70;99.90;;;;;;5034553;28;20017;-84
2022/05/03 05:39:51;;;;;;;11.65;6.43;;;9.80;99.90;;;;;;5034308;28;20028;-83
2022/05/03 05:42:16;;;;;;;9.20;5.95;;;9.80;99.90;;;;;;5052731;28;20028;-84
2022/05/03 05:44:45;;;;;;;15.73;5.88;;;9.80;99.90;;;;;;5051991;28;20021;-84
2022/05/03 05:47:11;;;;;;;13.48;5.32;;;9.80;99.90;;;;;;5034432;28;20047;-84
2022/05/03 05:49:39;;;;;;;16.38;5.63;;;9.90;99.90;;;;;;5052430;28;20540;-84
2022/05/03 05:54:55;;;;;;;18.05;6.32;;;10.00;99.90;;;;;;5052195;28;20543;-84
2022/05/03 05:57:20;;;;;;;9.90;5.32;;;10.00;99.90;;;;;;5052440;28;20434;-84
2022/05/03 05:59:48;;;;;;;12.32;5.82;;;10.10;99.90;;;;;;5052390;28;20108;-84
2022/05/03 06:02:16;;;;;;;14.65;7.40;;;10.00;99.90;;;;;;5050831;28;20079;-84
2022/05/03 06:04:42;;;;;;;16.10;6.03;;;10.10;99.90;;;;;;5052196;28;20029;-84
2022/05/03 06:07:07;;;;;;;12.25;6.25;;;10.10;99.90;;;;;;5052039;28;20385;-84
2022/05/03 06:09:34;;;;;;;8.63;5.28;;;10.20;99.90;;;;;;5055431;28;20033;-85
2022/05/03 06:11:59;;;;;;;6.75;4.40;;;10.20;99.90;;;;;;5056140;28;20079;-84
2022/05/03 06:14:37;;;;;;;6.15;4.57;;;10.30;99.90;;;;;;5056520;28;20021;-84
2022/05/03 06:17:03;;;;;;;9.48;4.80;;;10.30;99.90;;;;;;5055997;28;20025;-84
2022/05/03 06:19:31;;;;;;;8.02;4.78;;;10.30;99.90;;;;;;5055986;28;20098;-84
2022/05/03 06:22:08;;;;;;;9.07;4.60;;;10.30;99.90;;;;;;5055895;28;20111;-84
2022/05/03 06:24:34;;;;;;;14.95;4.70;;;10.30;99.90;;;;;;5037632;28;20477;-84
2022/05/03 06:26:59;;;;;;;11.85;4.93;;;10.30;99.90;;;;;;5055983;28;20499;-84
2022/05/03 06:29:25;;;;;;;6.88;4.03;;;10.40;99.90;;;;;;5056041;28;20026;-84
2022/05/03 06:31:54;;;;;;;15.75;4.28;;;10.40;99.90;;;;;;5055783;28;20381;-84
2022/05/03 06:34:19;;;;;;;7.70;4.20;;;10.40;99.90;;;;;;5055679;28;20021;-83
2022/05/03 06:36:49;;;;;;;8.35;3.80;;;10.50;99.90;;;;;;5054463;28;20033;-84
2022/05/03 06:39:17;;;;;;;8.02;3.78;;;10.50;99.90;;;;;;5055327;28;20489;-85
2022/05/03 06:41:43;;;;;;;8.02;4.72;;;10.50;99.90;;;;;;5055712;28;20029;-84
2022/05/03 06:44:19;;;;;;;8.65;4.25;;;10.60;99.90;;;;;;5054386;28;20047;-90
2022/05/03 06:46:45;;;;;;;13.27;4.05;;;10.70;99.90;;;;;;5055520;28;20053;-89
2022/05/03 06:49:11;;;;;;;7.43;4.13;;;10.70;99.90;;;;;;5055550;28;20061;-89
2022/05/03 06:51:38;;;;;;;7.55;4.18;;;10.70;99.90;;;;;;5055596;28;20022;-90
2022/05/03 06:54:17;;;;;;;7.40;3.70;;;10.80;99.90;;;;;;5055431;28;20072;-90
2022/05/03 06:56:43;;;;;;;8.45;4.53;;;10.80;99.90;;;;;;5037653;28;20025;-90
2022/05/03 06:59:15;;;;;;;14.10;4.10;;;10.80;99.90;;;;;;5055315;28;20543;-89
2022/05/03 07:01:41;;;;;;;9.95;4.07;;;10.90;99.90;;;;;;5037571;28;20032;-90
2022/05/03 07:04:17;;;;;;;5.55;3.90;;;10.90;99.90;;;;;;5055569;28;20025;-89
2022/05/03 07:06:42;;;;;;;7.32;3.03;;;10.90;99.90;;;;;;5055300;28;20115;-89
2022/05/03 07:09:18;;;;;;;4.88;3.25;;;11.00;99.90;;;;;;5037096;28;20132;-90
2022/05/03 07:11:44;;;;;;;5.68;3.58;;;10.90;99.90;;;;;;5055128;28;20417;-90
2022/05/03 07:14:22;;;;;;;11.63;3.65;;;11.00;99.90;;;;;;5054989;28;20025;-89
2022/05/03 07:16:47;;;;;;;6.28;3.22;;;11.10;99.90;;;;;;5055111;28;20037;-89
2022/05/03 07:22:54;;;;;;;7.68;3.00;;;11.30;99.90;;;;;;5055154;28;20140;-90
2022/05/03 07:24:55;;;;;;;6.30;3.00;;;11.30;99.90;;;;;;5042911;28;20025;-90
2022/05/03 07:27:57;;;;;;;8.35;3.75;;;11.30;99.90;;;;;;5037032;28;20025;-90
2022/05/03 07:30:23;;;;;;;5.72;2.90;;;11.30;99.90;;;;;;5037423;28;20082;-90
2022/05/03 07:32:56;;;;;;;6.63;3.42;;;11.40;99.90;;;;;;5054140;28;20116;-90
2022/05/03 07:35:23;;;;;;;8.43;3.38;;;11.50;99.90;;;;;;5055103;28;20017;-90
2022/05/03 07:37:50;;;;;;;14.57;2.95;;;11.60;99.90;;;;;;5054548;28;20491;-89
2022/05/03 07:40:16;;;;;;;9.82;2.58;;;11.60;99.90;;;;;;5036957;28;20021;-90
2022/05/03 07:42:55;;;;;;;5.63;3.38;;;11.70;99.90;;;;;;5054810;28;20389;-89
2022/05/03 07:45:21;;;;;;;7.88;3.38;;;11.80;99.90;;;;;;5054473;28;20051;-90
2022/05/03 07:48:00;;;;;;;6.82;3.20;;;11.80;99.90;;;;;;5054888;28;20025;-89
2022/05/03 07:50:26;;;;;;;8.35;3.70;;;11.80;99.90;;;;;;5054588;28;20021;-90
2022/05/03 07:52:51;;;;;;;9.65;4.30;;;11.80;99.90;;;;;;5054173;28;20032;-91
2022/05/03 07:55:17;;;;;;;7.20;3.10;;;11.90;99.90;;;;;;5053602;28;20040;-90
2022/05/03 07:57:44;;;;;;;8.52;3.45;;;11.90;99.90;;;;;;5053210;28;20029;-89
2022/05/03 08:00:10;;;;;;;7.05;3.40;;;12.00;99.90;;;;;;5036385;28;20063;-89
2022/05/03 08:02:36;;;;;;;5.75;3.17;;;12.00;99.90;;;;;;5053034;28;20017;-90
2022/05/03 08:05:02;;;;;;;6.72;3.70;;;12.10;99.90;;;;;;5054398;28;20438;-90
2022/05/03 08:07:30;;;;;;;7.97;4.15;;;12.10;99.90;;;;;;5053159;28;20108;-91
2022/05/03 08:09:55;;;;;;;5.97;3.20;;;12.20;99.90;;;;;;5054152;28;20029;-90
2022/05/03 08:12:51;;;;;;;6.25;3.33;;;12.20;99.90;;;;;;5054340;28;20025;-90
2022/05/03 08:15:22;;;;;;;5.18;2.92;;;12.30;99.90;;;;;;5036350;28;20079;-92
2022/05/03 08:17:49;;;;;;;6.95;3.13;;;12.40;99.90;;;;;;5036567;28;20703;-91
2022/05/03 08:20:15;;;;;;;5.60;3.10;;;12.50;99.90;;;;;;5036399;28;20017;-91
2022/05/03 08:22:46;;;;;;;3.92;2.50;;;12.50;99.90;;;;;;5035569;28;20555;-90
2022/05/03 08:25:12;;;;;;;4.78;2.47;;;12.50;99.90;;;;;;5053799;28;20025;-91
2022/05/03 08:27:40;;;;;;;4.68;2.65;;;12.60;99.90;;;;;;5036094;28;20052;-90
2022/05/03 08:30:10;;;;;;;3.85;2.90;;;12.50;99.90;;;;;;5053913;28;20024;-93
2022/05/03 08:32:39;;;;;;;6.88;3.53;;;12.50;99.90;;;;;;5035410;28;20056;-91
2022/05/03 08:35:05;;;;;;;7.95;2.58;;;12.60;99.90;;;;;;5035550;28;20064;-90
2022/05/03 08:43:28;;;;;;;4.40;2.55;;;12.70;99.90;;;;;;5054139;28;20031;-91
2022/05/03 08:45:54;;;;;;;3.50;2.22;;;12.80;99.90;;;;;;5035997;28;20568;-91
2022/05/03 08:48:32;;;;;;;15.60;3.05;;;12.90;99.90;;;;;;5053920;28;20056;-91
2022/05/03 08:50:58;;;;;;;6.82;3.00;;;12.90;99.90;;;;;;5036247;28;20029;-91
2022/05/03 08:53:29;;;;;;;11.48;2.95;;;12.90;99.90;;;;;;5053102;28;20096;-91
2022/05/03 08:55:55;;;;;;;5.45;3.03;;;12.90;99.90;;;;;;5053508;28;20032;-90
2022/05/03 08:58:44;;;;;;;7.70;2.83;;;13.00;99.90;;;;;;5035756;28;20029;-93
2022/05/03 09:01:10;;;;;;;4.03;2.28;;;13.00;99.90;;;;;;5036132;28;20033;-92
2022/05/03 09:03:37;;;;;;;4.90;2.65;;;13.00;99.90;;;;;;5052526;28;20397;-90
2022/05/03 09:06:07;;;;;;;4.00;2.08;;;13.00;99.90;;;;;;5053488;28;20029;-91
2022/05/03 09:08:52;;;;;;;8.70;3.20;;;13.00;99.90;;;;;;5035171;28;20384;-91
2022/05/03 09:11:18;;;;;;;6.07;2.63;;;13.10;99.90;;;;;;5035159;28;20021;-90
2022/05/03 09:13:51;;;;;;;5.50;2.60;;;13.10;99.90;;;;;;5035199;28;20555;-92
2022/05/03 09:16:18;;;;;;;8.15;2.55;;;13.30;99.90;;;;;;5049844;28;20495;-90
2022/05/03 09:19:21;;;;;;;4.45;2.45;;;13.40;99.90;;;;;;5047896;28;20033;-91
2022/05/03 09:24:58;;;;;;;5.93;3.33;;;13.50;99.90;;;;;;5053176;28;20048;-91
2022/05/03 09:27:25;;;;;;;4.13;2.47;;;13.60;99.90;;;;;;5069161;28;20132;-92
2022/05/03 09:30:10;;;;;;;6.57;2.53;;;13.70;99.90;;;;;;5073071;28;20051;-91
2022/05/03 09:33:00;;;;;;;6.43;2.33;;;13.80;99.90;;;;;;5055211;28;20024;-92
2022/05/03 09:35:36;;;;;;;7.30;2.38;;;13.90;99.90;;;;;;5073179;28;20108;-91
2022/05/03 09:38:03;;;;;;;6.97;2.10;;;13.90;99.90;;;;;;5072789;28;20062;-91
2022/05/03 09:40:35;;;;;;;5.97;2.72;;;13.80;99.90;;;;;;5072411;28;20071;-91
2022/05/03 09:43:01;;;;;;;3.15;1.98;;;13.80;99.90;;;;;;5070809;28;20035;-90
2022/05/03 09:45:28;;;;;;;6.20;2.33;;;13.80;99.90;;;;;;5071408;28;20024;-92
2022/05/03 09:47:56;;;;;;;12.20;3.10;;;13.80;99.90;;;;;;5071687;28;20070;-91
2022/05/03 09:50:49;;;;;;;4.03;2.50;;;13.80;99.90;;;;;;5072561;28;20143;-85
2022/05/03 09:53:21;;;;;;;4.70;2.50;;;13.90;99.90;;;;;;5072211;28;20070;-85
2022/05/03 09:55:50;;;;;;;4.13;2.25;;;13.90;99.90;;;;;;5072947;28;20464;-92
2022/05/03 09:58:18;;;;;;;6.55;2.13;;;13.90;99.90;;;;;;5072829;28;20028;-91
2022/05/03 10:00:56;;;;;;;5.40;1.90;;;13.90;99.90;;;;;;5071739;28;20029;-95
2022/05/03 10:03:22;;;;;;;4.35;2.08;;;13.80;99.90;;;;;;5072722;28;20031;-93
2022/05/03 10:05:52;;;;;;;7.35;3.03;;;13.80;99.90;;;;;;5071835;28;20029;-91
2022/05/03 10:08:21;;;;;;;2.30;1.55;;;13.80;99.90;;;;;;5072730;28;20024;-93
2022/05/03 10:10:56;;;;;;;4.25;1.90;;;13.90;99.90;;;;;;5072641;28;20066;-91
2022/05/03 10:13:21;;;;;;;2.30;1.75;;;14.00;99.90;;;;;;5071230;28;20017;-91
2022/05/03 10:21:59;;;;;;;4.75;2.38;;;14.20;99.90;;;;;;5073093;28;20095;-91
2022/05/03 10:24:26;;;;;;;5.28;1.83;;;14.20;99.90;;;;;;5071149;28;20119;-91
2022/05/03 10:26:52;;;;;;;3.17;2.28;;;14.20;99.90;;;;;;5071224;28;20020;-91
2022/05/03 10:29:21;;;;;;;4.65;2.30;;;14.10;99.90;;;;;;5072518;28;20077;-91
2022/05/03 10:32:02;;;;;;;5.00;2.05;;;14.00;99.90;;;;;;5071401;28;20043;-92
2022/05/03 10:34:40;;;;;;;3.67;2.20;;;14.00;99.90;;;;;;5071362;28;20020;-92
2022/05/03 10:37:17;;;;;;;5.57;2.78;;;14.00;99.90;;;;;;5054576;28;20028;-92
2022/05/03 10:39:59;;;;;;;3.15;2.45;;;14.10;99.90;;;;;;5071504;28;20029;-91
2022/05/03 10:42:27;;;;;;;5.78;2.17;;;14.10;99.90;;;;;;5071718;28;20498;-92
2022/05/03 10:44:53;;;;;;;2.70;2.00;;;14.10;99.50;;;;;;5071385;28;20056;-91
2022/05/03 10:47:21;;;;;;;4.13;1.83;;;14.00;99.60;;;;;;5055017;28;20028;-92
2022/05/03 10:50:12;;;;;;;2.65;1.50;;;14.00;99.90;;;;;;5071188;28;20063;-91
2022/05/03 10:52:46;;;;;;;3.42;1.92;;;14.00;99.90;;;;;;5054468;28;20051;-90
2022/05/03 10:55:13;;;;;;;3.22;2.92;;;14.10;99.90;;;;;;5057210;28;20551;-92
2022/05/03 11:01:42;;;;;;;3.58;2.67;;;14.40;99.90;;;;;;5076181;28;20525;-92
2022/05/03 11:04:09;;;;;;;5.63;2.83;;;14.60;98.50;;;;;;5075924;28;20384;-93
2022/05/03 11:07:07;;;;;;;11.38;2.97;;;14.70;98.30;;;;;;5075682;28;20111;-93
2022/05/03 11:09:33;;;;;;;7.90;3.15;;;14.80;96.40;;;;;;5076389;28;20361;-91
2022/05/03 11:12:14;;;;;;;7.78;2.83;;;15.00;94.90;;;;;;5075513;28;20108;-92
2022/05/03 11:14:39;;;;;;;4.25;2.58;;;15.10;95.30;;;;;;5076170;28;20020;-92
2022/05/03 11:17:18;;;;;;;11.85;3.67;;;15.10;94.00;;;;;;5076003;28;20048;-92
2022/05/03 11:19:46;;;;;;;3.72;2.53;;;15.20;95.00;;;;;;5075408;28;20032;-93
2022/05/03 11:22:14;;;;;;;8.23;2.38;;;15.20;92.30;;;;;;5057434;28;20036;-93
2022/05/03 11:24:46;;;;;;;4.03;2.70;;;15.20;93.20;;;;;;5075658;28;20033;-93
2022/05/03 11:27:14;;;;;;;6.32;2.25;;;15.30;93.40;;;;;;5075883;28;20029;-93
2022/05/03 11:30:02;;;;;;;2.30;1.52;;;15.30;88.10;;;;;;5074532;28;20020;-93
2022/05/03 11:32:59;;;;;;;6.70;2.35;;;15.30;84.00;;;;;;5074749;28;20012;-94
2022/05/03 11:35:26;;;;;;;5.18;2.70;;;15.40;81.10;;;;;;5055160;28;20025;-93
2022/05/03 11:37:55;;;;;;;2.92;2.55;;;15.40;74.70;;;;;;5074551;28;20028;-93
2022/05/03 11:40:23;;;;;;;6.03;2.38;;;15.50;75.80;;;;;;5074387;28;20387;-93
2022/05/03 11:42:50;;;;;;;3.55;1.90;;;15.60;74.60;;;;;;5074639;28;20095;-93
2022/05/03 11:45:16;;;;;;;2.58;1.70;;;15.60;71.80;;;;;;5074267;28;20021;-94
2022/05/03 11:47:50;;;;;;;3.03;1.77;;;15.60;73.70;;;;;;5074418;28;20115;-93
2022/05/03 11:56:29;;;;;;;4.82;1.92;;;15.80;73.50;;;;;;5075911;28;20028;-92
2022/05/03 11:58:55;;;;;;;3.67;1.70;;;15.90;78.30;;;;;;5057719;28;20388;-95
2022/05/03 12:02:04;;;;;;;2.15;1.85;;;16.00;79.40;;;;;;5074962;28;20523;-94
2022/05/03 12:04:30;;;;;;;2.55;2.08;;;16.10;65.10;;;;;;5057304;28;20503;-92
2022/05/03 12:07:19;;;;;;;3.10;2.30;;;16.10;67.30;;;;;;5072846;28;20056;-94
2022/05/03 12:09:44;;;;;;;2.67;2.03;;;16.20;60.80;;;;;;5057385;28;20020;-93
2022/05/03 12:12:45;;;;;;;1.45;1.20;;;16.20;59.00;;;;;;5073827;28;20427;-94
2022/05/03 12:22:13;;;;;;;3.85;1.95;;;16.50;56.30;;;;;;5061292;28;20523;-94
2022/05/03 12:24:42;;;;;;;1.48;1.13;;;16.70;56.50;;;;;;5053778;28;20025;-94
2022/05/03 12:27:31;;;;;;;1.63;1.52;;;16.70;56.20;;;;;;5057276;28;20074;-95
2022/05/03 12:33:19;;;;;;;5.43;1.50;;;16.80;57.50;;;;;;5039027;28;20063;-92
2022/05/03 12:35:56;;;;;;;2.08;1.25;;;16.90;55.00;;;;;;5054433;28;20052;-93
2022/05/03 12:38:24;;;;;;;6.63;1.40;;;17.00;54.80;;;;;;5054041;28;20021;-96
2022/05/03 12:40:57;;;;;;;1.83;1.17;;;17.00;62.00;;;;;;5053939;28;20466;-94
2022/05/03 12:46:44;;;;;;;2.97;1.25;;;17.10;55.10;;;;;;5055539;28;20550;-95
2022/05/03 12:49:14;;;;;;;3.30;2.55;;;17.10;55.90;;;;;;5055000;28;20021;-95
2022/05/03 12:51:42;;;;;;;2.65;1.67;;;17.10;57.90;;;;;;5055970;28;20148;-94
2022/05/03 12:54:17;;;;;;;2.10;1.90;;;17.20;58.60;;;;;;5054294;28;20354;-96
2022/05/03 13:00:05;;;;;;;4.35;2.15;;;17.10;56.60;;;;;;5055735;28;20112;-93
2022/05/03 13:05:54;;;;;;;2.72;1.88;;;17.20;56.10;;;;;;5056584;28;20037;-94
2022/05/03 13:11:41;;;;;;;4.43;1.50;;;17.10;57.00;;;;;;5054991;28;20031;-95
2022/05/03 13:14:18;;;;;;;1.65;1.30;;;17.20;61.10;;;;;;5053314;28;20388;-93
2022/05/03 13:16:45;;;;;;;2.45;1.90;;;17.20;60.80;;;;;;5053111;28;20119;-95
2022/05/03 13:19:24;;;;;;;4.15;1.65;;;17.30;58.40;;;;;;5053372;28;20021;-93
2022/05/03 13:22:07;;;;;;;3.10;1.60;;;17.30;57.90;;;;;;5052733;28;20135;-94
2022/05/03 13:24:32;;;;;;;3.25;1.70;;;17.30;60.60;;;;;;5053319;28;20025;-96
2022/05/03 13:30:57;;;;;;;3.03;1.90;;;17.50;58.10;;;;;;5054572;28;20039;-94
2022/05/03 13:33:23;;;;;;;3.35;2.20;;;17.50;60.10;;;;;;5036552;28;20028;-95
2022/05/03 13:42:09;;;;;;;3.08;2.30;;;17.50;67.20;;;;;;5054954;28;20032;-93
2022/05/03 13:44:39;;;;;;;4.93;2.42;;;17.70;60.10;;;;;;5035282;28;20028;-84
2022/05/03 13:47:08;;;;;;;4.15;2.15;;;17.80;64.60;;;;;;5052550;28;20096;-85
2022/05/03 13:49:37;;;;;;;3.80;2.10;;;18.00;60.80;;;;;;5052543;28;20029;-85
2022/05/03 13:52:02;;;;;;;1.92;1.75;;;18.10;58.30;;;;;;5052148;28;20020;-84
2022/05/03 13:54:29;;;;;;;2.38;1.92;;;18.10;58.20;;;;;;5052379;28;20021;-85
2022/05/03 13:56:55;;;;;;;3.85;2.25;;;18.10;58.40;;;;;;5051274;28;20112;-87
2022/05/03 13:59:22;;;;;;;3.70;1.88;;;18.00;58.60;;;;;;5051513;28;20044;-85
2022/05/03 14:01:48;;;;;;;2.42;1.90;;;18.00;61.80;;;;;;5052548;28;20539;-86
2022/05/03 14:04:13;;;;;;;2.35;1.90;;;17.90;64.60;;;;;;5052242;28;20029;-84
2022/05/03 14:06:39;;;;;;;4.47;2.67;;;17.90;59.80;;;;;;5052062;28;20029;-84
2022/05/03 14:09:05;;;;;;;3.88;2.13;;;18.00;61.60;;;;;;5034566;28;20500;-85
2022/05/03 14:11:32;;;;;;;3.03;2.17;;;18.00;66.30;;;;;;5052282;28;20025;-86
2022/05/03 14:14:02;;;;;;;3.95;1.83;;;18.00;59.90;;;;;;5052199;28;20492;-86
2022/05/03 14:16:30;;;;;;;6.15;2.40;;;18.00;62.90;;;;;;5052267;28;20033;-85
2022/05/03 14:18:58;;;;;;;3.83;2.40;;;18.00;60.30;;;;;;5052321;28;20480;-85
2022/05/03 14:21:25;;;;;;;3.35;2.53;;;18.10;59.50;;;;;;5052069;28;20045;-85
2022/05/03 14:23:51;;;;;;;7.70;2.53;;;18.10;60.50;;;;;;5051678;28;20485;-85
2022/05/03 14:26:20;;;;;;;6.65;2.58;;;18.10;59.40;;;;;;5052193;28;20041;-85
2022/05/03 14:28:48;;;;;;;3.28;2.40;;;18.10;59.10;;;;;;5052737;28;20033;-85